sensor_id;sensor_type;location;lat;lon;timestamp;pressure;altitude;pressure_sealevel;temperature;humidity
7052;BME280;3567;52.444;13.556;2023-07-09T00:01:42;101726.84;;;17.08;80.35
7052;BME280;3567;52.444;13.556;2023-07-09T00:04:10;101735.47;;;17.05;79.54
7052;BME280;3567;52.444;13.556;2023-07-09T00:06:35;101740.81;;;17.00;80.05
7052;BME280;3567;52.444;13.556;2023-07-09T00:09:01;101741.81;;;16.94;80.38
7052;BME280;3567;52.444;13.556;2023-07-09T00:11:27;101741.72;;;16.89;80.31
7052;BME280;3567;52.444;13.556;2023-07-09T00:13:52;101738.41;;;16.87;80.92
7052;BME280;3567;52.444;13.556;2023-07-09T00:16:24;101743.28;;;16.85;81.49
7052;BME280;3567;52.444;13.556;2023-07-09T00:18:50;101751.06;;;16.81;81.50
7052;BME280;3567;52.444;13.556;2023-07-09T00:21:17;101747.44;;;16.75;81.82
7052;BME280;3567;52.444;13.556;2023-07-09T00:23:42;101746.28;;;16.71;81.75
7052;BME280;3567;52.444;13.556;2023-07-09T00:26:12;101746.97;;;16.67;82.05
7052;BME280;3567;52.444;13.556;2023-07-09T00:28:44;101744.78;;;16.64;82.84
7052;BME280;3567;52.444;13.556;2023-07-09T00:31:14;101737.41;;;16.59;83.46
7052;BME280;3567;52.444;13.556;2023-07-09T00:33:40;101740.81;;;16.55;83.48
7052;BME280;3567;52.444;13.556;2023-07-09T00:36:15;101741.56;;;16.50;84.00
7052;BME280;3567;52.444;13.556;2023-07-09T00:38:42;101736.06;;;16.45;84.69
7052;BME280;3567;52.444;13.556;2023-07-09T00:41:19;101736.78;;;16.40;84.62
7052;BME280;3567;52.444;13.556;2023-07-09T00:43:46;101738.34;;;16.36;84.89
7052;BME280;3567;52.444;13.556;2023-07-09T00:48:55;101732.13;;;16.36;85.05
7052;BME280;3567;52.444;13.556;2023-07-09T00:51:24;101726.72;;;16.36;85.35
7052;BME280;3567;52.444;13.556;2023-07-09T00:53:53;101726.72;;;16.36;85.57
7052;BME280;3567;52.444;13.556;2023-07-09T00:56:30;101719.41;;;16.36;85.17
7052;BME280;3567;52.444;13.556;2023-07-09T00:59:00;101728.34;;;16.37;85.17
7052;BME280;3567;52.444;13.556;2023-07-09T01:01:30;101716.47;;;16.38;85.76
7052;BME280;3567;52.444;13.556;2023-07-09T01:03:58;101712.13;;;16.37;86.27
7052;BME280;3567;52.444;13.556;2023-07-09T01:06:33;101713.75;;;16.38;86.49
7052;BME280;3567;52.444;13.556;2023-07-09T01:09:01;101710.81;;;16.39;87.29
7052;BME280;3567;52.444;13.556;2023-07-09T01:11:28;101708.34;;;16.38;87.21
7052;BME280;3567;52.444;13.556;2023-07-09T01:13:56;101713.75;;;16.38;86.97
7052;BME280;3567;52.444;13.556;2023-07-09T01:16:25;101714.56;;;16.38;87.39
7052;BME280;3567;52.444;13.556;2023-07-09T01:18:52;101705.66;;;16.38;87.22
7052;BME280;3567;52.444;13.556;2023-07-09T01:21:18;101709.16;;;16.38;87.56
7052;BME280;3567;52.444;13.556;2023-07-09T01:23:45;101712.13;;;16.37;86.66
7052;BME280;3567;52.444;13.556;2023-07-09T01:26:17;101717.28;;;16.38;86.10
7052;BME280;3567;52.444;13.556;2023-07-09T01:28:43;101719.97;;;16.38;86.05
7052;BME280;3567;52.444;13.556;2023-07-09T01:31:14;101719.16;;;16.38;86.61
7052;BME280;3567;52.444;13.556;2023-07-09T01:33:41;101720.97;;;16.32;87.75
7052;BME280;3567;52.444;13.556;2023-07-09T01:36:17;101727.91;;;16.28;87.44
7052;BME280;3567;52.444;13.556;2023-07-09T01:38:43;101724.28;;;16.22;87.43
7052;BME280;3567;52.444;13.556;2023-07-09T01:41:09;101720.94;;;16.15;88.02
7052;BME280;3567;52.444;13.556;2023-07-09T01:43:38;101722.94;;;16.08;88.72
7052;BME280;3567;52.444;13.556;2023-07-09T01:46:04;101726.03;;;16.00;87.95
7052;BME280;3567;52.444;13.556;2023-07-09T01:48:29;101721.00;;;15.92;88.27
7052;BME280;3567;52.444;13.556;2023-07-09T01:50:55;101730.31;;;15.84;88.38
7052;BME280;3567;52.444;13.556;2023-07-09T01:53:22;101721.19;;;15.74;88.84
7052;BME280;3567;52.444;13.556;2023-07-09T01:55:50;101723.19;;;15.66;89.19
7052;BME280;3567;52.444;13.556;2023-07-09T01:58:16;101713.78;;;15.57;89.53
7052;BME280;3567;52.444;13.556;2023-07-09T02:00:42;101717.66;;;15.50;89.84
7052;BME280;3567;52.444;13.556;2023-07-09T02:03:08;101714.03;;;15.44;89.98
7052;BME280;3567;52.444;13.556;2023-07-09T02:05:35;101709.56;;;15.38;89.83
7052;BME280;3567;52.444;13.556;2023-07-09T02:08:01;101707.00;;;15.31;90.04
7052;BME280;3567;52.444;13.556;2023-07-09T02:10:27;101715.34;;;15.30;91.14
7052;BME280;3567;52.444;13.556;2023-07-09T02:12:53;101712.53;;;15.25;91.38
7052;BME280;3567;52.444;13.556;2023-07-09T02:15:19;101712.66;;;15.18;91.07
7052;BME280;3567;52.444;13.556;2023-07-09T02:17:44;101718.28;;;15.16;91.32
7052;BME280;3567;52.444;13.556;2023-07-09T02:20:11;101720.41;;;15.14;91.45
7052;BME280;3567;52.444;13.556;2023-07-09T02:22:37;101719.22;;;15.10;91.80
7052;BME280;3567;52.444;13.556;2023-07-09T02:25:04;101721.91;;;15.10;92.50
7052;BME280;3567;52.444;13.556;2023-07-09T02:27:31;101727.78;;;15.07;92.43
7052;BME280;3567;52.444;13.556;2023-07-09T02:29:57;101716.88;;;15.02;92.66
7052;BME280;3567;52.444;13.556;2023-07-09T02:32:25;101718.97;;;15.00;93.04
7052;BME280;3567;52.444;13.556;2023-07-09T02:34:52;101718.63;;;14.97;93.34
7052;BME280;3567;52.444;13.556;2023-07-09T02:37:20;101719.91;;;14.94;93.07
7052;BME280;3567;52.444;13.556;2023-07-09T02:39:46;101720.38;;;14.91;94.36
7052;BME280;3567;52.444;13.556;2023-07-09T02:42:13;101726.25;;;14.88;94.06
7052;BME280;3567;52.444;13.556;2023-07-09T02:44:40;101723.19;;;14.84;94.02
7052;BME280;3567;52.444;13.556;2023-07-09T02:47:06;101728.81;;;14.83;93.81
7052;BME280;3567;52.444;13.556;2023-07-09T02:49:31;101722.84;;;14.81;93.95
7052;BME280;3567;52.444;13.556;2023-07-09T02:51:57;101727.63;;;14.79;94.97
7052;BME280;3567;52.444;13.556;2023-07-09T02:54:22;101729.75;;;14.77;94.50
7052;BME280;3567;52.444;13.556;2023-07-09T02:56:47;101721.88;;;14.75;94.63
7052;BME280;3567;52.444;13.556;2023-07-09T02:59:14;101712.38;;;14.73;95.01
7052;BME280;3567;52.444;13.556;2023-07-09T03:01:42;101721.53;;;14.72;94.62
7052;BME280;3567;52.444;13.556;2023-07-09T03:04:07;101723.63;;;14.70;95.27
7052;BME280;3567;52.444;13.556;2023-07-09T03:06:35;101723.63;;;14.70;95.65
7052;BME280;3567;52.444;13.556;2023-07-09T03:09:02;101720.34;;;14.67;95.89
7052;BME280;3567;52.444;13.556;2023-07-09T03:11:29;101733.03;;;14.67;95.65
7052;BME280;3567;52.444;13.556;2023-07-09T03:13:56;101741.09;;;14.67;96.00
7052;BME280;3567;52.444;13.556;2023-07-09T03:16:22;101736.41;;;14.62;96.34
7052;BME280;3567;52.444;13.556;2023-07-09T03:18:47;101746.59;;;14.60;96.54
7052;BME280;3567;52.444;13.556;2023-07-09T03:21:13;101744.34;;;14.57;97.12
7052;BME280;3567;52.444;13.556;2023-07-09T03:23:38;101740.84;;;14.57;97.57
7052;BME280;3567;52.444;13.556;2023-07-09T03:26:04;101748.13;;;14.56;97.64
7052;BME280;3567;52.444;13.556;2023-07-09T03:28:32;101744.13;;;14.59;97.55
7052;BME280;3567;52.444;13.556;2023-07-09T03:30:58;101749.31;;;14.60;97.97
7052;BME280;3567;52.444;13.556;2023-07-09T03:33:24;101747.44;;;14.61;98.17
7052;BME280;3567;52.444;13.556;2023-07-09T03:35:51;101748.00;;;14.63;98.69
7052;BME280;3567;52.444;13.556;2023-07-09T03:38:17;101748.97;;;14.68;98.37
7052;BME280;3567;52.444;13.556;2023-07-09T03:40:42;101753.41;;;14.75;98.26
7052;BME280;3567;52.444;13.556;2023-07-09T03:43:09;101747.59;;;14.78;98.11
7052;BME280;3567;52.444;13.556;2023-07-09T03:45:35;101753.91;;;14.83;98.05
7052;BME280;3567;52.444;13.556;2023-07-09T03:48:02;101749.91;;;14.86;98.30
7052;BME280;3567;52.444;13.556;2023-07-09T03:50:27;101751.72;;;14.92;97.78
7052;BME280;3567;52.444;13.556;2023-07-09T03:52:53;101750.28;;;15.01;97.88
7052;BME280;3567;52.444;13.556;2023-07-09T03:55:19;101751.84;;;15.09;97.99
7052;BME280;3567;52.444;13.556;2023-07-09T03:57:44;101747.38;;;15.14;97.50
7052;BME280;3567;52.444;13.556;2023-07-09T04:00:10;101753.47;;;15.22;97.79
7052;BME280;3567;52.444;13.556;2023-07-09T04:02:37;101753.72;;;15.32;97.37
7052;BME280;3567;52.444;13.556;2023-07-09T04:05:03;101751.72;;;15.39;97.39
7052;BME280;3567;52.444;13.556;2023-07-09T04:07:29;101751.38;;;15.47;96.15
7052;BME280;3567;52.444;13.556;2023-07-09T04:09:54;101753.22;;;15.58;96.53
7052;BME280;3567;52.444;13.556;2023-07-09T04:12:20;101755.13;;;15.69;96.25
7052;BME280;3567;52.444;13.556;2023-07-09T04:14:45;101760.75;;;15.80;96.02
7052;BME280;3567;52.444;13.556;2023-07-09T04:17:11;101764.47;;;15.90;95.83
7052;BME280;3567;52.444;13.556;2023-07-09T04:19:36;101763.06;;;16.00;96.04
7052;BME280;3567;52.444;13.556;2023-07-09T04:22:02;101768.41;;;16.11;95.73
7052;BME280;3567;52.444;13.556;2023-07-09T04:24:27;101762.41;;;16.21;95.35
7052;BME280;3567;52.444;13.556;2023-07-09T04:26:53;101778.56;;;16.33;94.24
7052;BME280;3567;52.444;13.556;2023-07-09T04:29:24;101763.09;;;16.45;94.49
7052;BME280;3567;52.444;13.556;2023-07-09T04:31:49;101777.41;;;16.57;94.19
7052;BME280;3567;52.444;13.556;2023-07-09T04:34:15;101762.41;;;16.66;93.91
7052;BME280;3567;52.444;13.556;2023-07-09T04:36:40;101762.94;;;16.80;92.95
7052;BME280;3567;52.444;13.556;2023-07-09T04:39:05;101763.47;;;16.94;91.51
7052;BME280;3567;52.444;13.556;2023-07-09T04:41:31;101761.88;;;17.15;89.15
7052;BME280;3567;52.444;13.556;2023-07-09T04:43:58;101764.66;;;17.37;88.23
7052;BME280;3567;52.444;13.556;2023-07-09T04:46:23;101763.22;;;17.51;87.91
7052;BME280;3567;52.444;13.556;2023-07-09T04:48:48;101770.25;;;17.69;86.37
7052;BME280;3567;52.444;13.556;2023-07-09T04:51:14;101774.81;;;17.85;84.26
7052;BME280;3567;52.444;13.556;2023-07-09T04:53:39;101774.75;;;18.02;84.06
7052;BME280;3567;52.444;13.556;2023-07-09T04:56:04;101771.16;;;18.18;83.73
7052;BME280;3567;52.444;13.556;2023-07-09T04:58:31;101771.06;;;18.35;82.50
7052;BME280;3567;52.444;13.556;2023-07-09T05:00:57;101777.19;;;18.52;81.26
7052;BME280;3567;52.444;13.556;2023-07-09T05:03:22;101774.72;;;18.73;80.13
7052;BME280;3567;52.444;13.556;2023-07-09T05:05:48;101771.88;;;18.90;80.52
7052;BME280;3567;52.444;13.556;2023-07-09T05:08:14;101772.63;;;19.17;78.99
7052;BME280;3567;52.444;13.556;2023-07-09T05:10:45;101770.59;;;19.34;78.24
7052;BME280;3567;52.444;13.556;2023-07-09T05:13:11;101762.72;;;19.38;78.23
7052;BME280;3567;52.444;13.556;2023-07-09T05:15:40;101759.19;;;19.37;78.60
7052;BME280;3567;52.444;13.556;2023-07-09T05:18:06;101770.84;;;19.38;78.34
7052;BME280;3567;52.444;13.556;2023-07-09T05:20:33;101767.31;;;19.37;77.28
7052;BME280;3567;52.444;13.556;2023-07-09T05:22:58;101765.72;;;19.42;76.87
7052;BME280;3567;52.444;13.556;2023-07-09T05:25:23;101762.78;;;19.48;75.84
7052;BME280;3567;52.444;13.556;2023-07-09T05:27:49;101766.34;;;19.54;75.82
7052;BME280;3567;52.444;13.556;2023-07-09T05:30:14;101770.75;;;19.60;75.60
7052;BME280;3567;52.444;13.556;2023-07-09T05:32:40;101764.81;;;19.68;74.71
7052;BME280;3567;52.444;13.556;2023-07-09T05:35:05;101768.13;;;19.80;74.55
7052;BME280;3567;52.444;13.556;2023-07-09T05:37:31;101769.81;;;19.92;74.44
7052;BME280;3567;52.444;13.556;2023-07-09T05:39:56;101770.41;;;20.04;73.59
7052;BME280;3567;52.444;13.556;2023-07-09T05:42:22;101770.72;;;20.18;73.14
7052;BME280;3567;52.444;13.556;2023-07-09T05:44:47;101768.31;;;20.31;72.00
7052;BME280;3567;52.444;13.556;2023-07-09T05:47:13;101775.13;;;20.44;73.71
7052;BME280;3567;52.444;13.556;2023-07-09T05:49:38;101773.28;;;20.55;73.03
7052;BME280;3567;52.444;13.556;2023-07-09T05:52:04;101774.66;;;20.67;72.44
7052;BME280;3567;52.444;13.556;2023-07-09T05:54:30;101763.78;;;20.83;72.71
7052;BME280;3567;52.444;13.556;2023-07-09T05:56:56;101765.13;;;20.96;71.13
7052;BME280;3567;52.444;13.556;2023-07-09T05:59:21;101772.50;;;21.05;70.67
7052;BME280;3567;52.444;13.556;2023-07-09T06:01:46;101764.84;;;21.12;69.16
7052;BME280;3567;52.444;13.556;2023-07-09T06:04:12;101767.03;;;21.21;68.45
7052;BME280;3567;52.444;13.556;2023-07-09T06:06:40;101760.47;;;21.27;68.74
7052;BME280;3567;52.444;13.556;2023-07-09T06:09:07;101759.91;;;21.45;68.78
7052;BME280;3567;52.444;13.556;2023-07-09T06:11:33;101761.78;;;21.60;67.49
7052;BME280;3567;52.444;13.556;2023-07-09T06:13:59;101769.41;;;21.68;67.72
7052;BME280;3567;52.444;13.556;2023-07-09T06:16:25;101757.91;;;21.71;66.22
7052;BME280;3567;52.444;13.556;2023-07-09T06:18:53;101766.91;;;21.77;66.33
7052;BME280;3567;52.444;13.556;2023-07-09T06:21:21;101769.59;;;21.87;66.72
7052;BME280;3567;52.444;13.556;2023-07-09T06:23:47;101766.47;;;22.19;66.54
7052;BME280;3567;52.444;13.556;2023-07-09T06:26:12;101762.50;;;22.40;65.18
7052;BME280;3567;52.444;13.556;2023-07-09T06:28:38;101766.84;;;22.46;64.49
7052;BME280;3567;52.444;13.556;2023-07-09T06:31:03;101763.25;;;22.51;65.81
7052;BME280;3567;52.444;13.556;2023-07-09T06:33:29;101770.34;;;22.52;63.96
7052;BME280;3567;52.444;13.556;2023-07-09T06:36:00;101763.50;;;22.55;63.83
7052;BME280;3567;52.444;13.556;2023-07-09T06:38:27;101774.97;;;22.57;63.67
7052;BME280;3567;52.444;13.556;2023-07-09T06:40:53;101776.59;;;22.58;63.74
7052;BME280;3567;52.444;13.556;2023-07-09T06:43:19;101776.00;;;22.66;62.00
7052;BME280;3567;52.444;13.556;2023-07-09T06:45:53;101771.00;;;22.73;60.69
7052;BME280;3567;52.444;13.556;2023-07-09T06:48:19;101775.91;;;22.76;61.19
7052;BME280;3567;52.444;13.556;2023-07-09T06:50:45;101778.03;;;22.84;62.04
7052;BME280;3567;52.444;13.556;2023-07-09T06:53:10;101777.47;;;22.87;62.70
7052;BME280;3567;52.444;13.556;2023-07-09T06:55:36;101777.97;;;22.94;61.06
7052;BME280;3567;52.444;13.556;2023-07-09T06:58:01;101771.09;;;23.02;60.19
7052;BME280;3567;52.444;13.556;2023-07-09T07:00:26;101774.53;;;23.13;60.84
7052;BME280;3567;52.444;13.556;2023-07-09T07:02:52;101775.53;;;23.22;61.63
7052;BME280;3567;52.444;13.556;2023-07-09T07:05:18;101783.69;;;23.27;61.37
7052;BME280;3567;52.444;13.556;2023-07-09T07:07:44;101783.63;;;23.32;62.52
7052;BME280;3567;52.444;13.556;2023-07-09T07:10:09;101783.31;;;23.39;62.03
7052;BME280;3567;52.444;13.556;2023-07-09T07:12:46;101774.81;;;23.40;60.92
7052;BME280;3567;52.444;13.556;2023-07-09T07:15:13;101769.81;;;23.47;59.30
7052;BME280;3567;52.444;13.556;2023-07-09T07:17:39;101777.94;;;23.52;59.96
7052;BME280;3567;52.444;13.556;2023-07-09T07:20:06;101775.47;;;23.56;59.39
7052;BME280;3567;52.444;13.556;2023-07-09T07:22:32;101771.63;;;23.57;58.08
7052;BME280;3567;52.444;13.556;2023-07-09T07:24:57;101774.84;;;23.64;58.96
7052;BME280;3567;52.444;13.556;2023-07-09T07:27:23;101768.22;;;23.70;57.83
7052;BME280;3567;52.444;13.556;2023-07-09T07:29:48;101773.03;;;23.78;57.22
7052;BME280;3567;52.444;13.556;2023-07-09T07:32:13;101771.03;;;23.84;57.25
7052;BME280;3567;52.444;13.556;2023-07-09T07:34:39;101766.19;;;24.00;57.19
7052;BME280;3567;52.444;13.556;2023-07-09T07:37:04;101770.28;;;24.21;55.32
7052;BME280;3567;52.444;13.556;2023-07-09T07:39:29;101762.19;;;24.35;55.14
7052;BME280;3567;52.444;13.556;2023-07-09T07:41:55;101769.41;;;24.45;54.54
7052;BME280;3567;52.444;13.556;2023-07-09T07:44:21;101770.75;;;24.47;54.05
7052;BME280;3567;52.444;13.556;2023-07-09T07:46:47;101761.97;;;24.50;53.56
7052;BME280;3567;52.444;13.556;2023-07-09T07:49:12;101759.25;;;24.64;53.05
7052;BME280;3567;52.444;13.556;2023-07-09T07:51:38;101761.03;;;24.74;52.43
7052;BME280;3567;52.444;13.556;2023-07-09T07:54:04;101754.09;;;24.95;52.33
7052;BME280;3567;52.444;13.556;2023-07-09T07:56:29;101753.13;;;25.19;52.18
7052;BME280;3567;52.444;13.556;2023-07-09T07:58:55;101746.16;;;25.40;49.96
7052;BME280;3567;52.444;13.556;2023-07-09T08:01:20;101753.59;;;25.53;51.16
7052;BME280;3567;52.444;13.556;2023-07-09T08:03:45;101746.88;;;25.73;50.29
7052;BME280;3567;52.444;13.556;2023-07-09T08:06:11;101741.91;;;25.89;48.79
7052;BME280;3567;52.444;13.556;2023-07-09T08:08:37;101742.88;;;25.93;47.78
7052;BME280;3567;52.444;13.556;2023-07-09T08:11:05;101751.72;;;26.04;49.02
7052;BME280;3567;52.444;13.556;2023-07-09T08:13:33;101747.59;;;26.29;49.02
7052;BME280;3567;52.444;13.556;2023-07-09T08:15:59;101745.44;;;26.62;47.75
7052;BME280;3567;52.444;13.556;2023-07-09T08:18:25;101740.63;;;26.90;47.70
7052;BME280;3567;52.444;13.556;2023-07-09T08:20:50;101742.03;;;27.10;46.38
7052;BME280;3567;52.444;13.556;2023-07-09T08:23:16;101735.66;;;27.23;45.24
7052;BME280;3567;52.444;13.556;2023-07-09T08:25:41;101736.31;;;27.29;44.96
7052;BME280;3567;52.444;13.556;2023-07-09T08:28:06;101741.44;;;27.22;46.11
7052;BME280;3567;52.444;13.556;2023-07-09T08:30:32;101745.72;;;27.28;47.15
7052;BME280;3567;52.444;13.556;2023-07-09T08:32:57;101737.31;;;27.33;45.68
7052;BME280;3567;52.444;13.556;2023-07-09T08:35:23;101743.59;;;27.25;46.55
7052;BME280;3567;52.444;13.556;2023-07-09T08:37:48;101742.59;;;27.21;46.15
7052;BME280;3567;52.444;13.556;2023-07-09T08:40:16;101741.44;;;27.22;46.73
7052;BME280;3567;52.444;13.556;2023-07-09T08:42:46;101740.41;;;27.40;46.75
7052;BME280;3567;52.444;13.556;2023-07-09T08:45:45;101730.53;;;27.39;44.69
7052;BME280;3567;52.444;13.556;2023-07-09T08:48:18;101739.06;;;27.29;45.82
7052;BME280;3567;52.444;13.556;2023-07-09T08:50:54;101729.81;;;27.25;45.04
7052;BME280;3567;52.444;13.556;2023-07-09T08:55:55;101731.34;;;27.48;45.91
7052;BME280;3567;52.444;13.556;2023-07-09T08:58:25;101723.63;;;27.59;45.39
7052;BME280;3567;52.444;13.556;2023-07-09T09:00:54;101722.50;;;27.68;45.25
7052;BME280;3567;52.444;13.556;2023-07-09T09:03:37;101723.56;;;27.90;45.01
7052;BME280;3567;52.444;13.556;2023-07-09T09:06:13;101716.44;;;27.89;44.50
7052;BME280;3567;52.444;13.556;2023-07-09T09:09:00;101711.25;;;27.87;43.39
7052;BME280;3567;52.444;13.556;2023-07-09T09:14:13;101711.25;;;27.87;43.98
7052;BME280;3567;52.444;13.556;2023-07-09T09:16:44;101709.47;;;28.00;43.49
7052;BME280;3567;52.444;13.556;2023-07-09T09:19:23;101706.72;;;28.09;42.90
7052;BME280;3567;52.444;13.556;2023-07-09T09:21:57;101709.00;;;28.15;42.46
7052;BME280;3567;52.444;13.556;2023-07-09T09:24:39;101703.50;;;28.33;42.55
7052;BME280;3567;52.444;13.556;2023-07-09T09:27:08;101704.63;;;28.58;42.19
7052;BME280;3567;52.444;13.556;2023-07-09T09:29:33;101709.94;;;28.63;42.57
7052;BME280;3567;52.444;13.556;2023-07-09T09:32:08;101702.78;;;28.70;40.71
7052;BME280;3567;52.444;13.556;2023-07-09T09:34:37;101700.19;;;28.65;40.25
7052;BME280;3567;52.444;13.556;2023-07-09T09:37:10;101697.44;;;28.74;39.69
7052;BME280;3567;52.444;13.556;2023-07-09T09:39:38;101695.59;;;28.87;39.63
7052;BME280;3567;52.444;13.556;2023-07-09T09:42:10;101693.03;;;28.99;37.30
7052;BME280;3567;52.444;13.556;2023-07-09T09:44:39;101689.81;;;29.27;37.72
7052;BME280;3567;52.444;13.556;2023-07-09T09:47:10;101700.41;;;29.45;37.87
7052;BME280;3567;52.444;13.556;2023-07-09T09:49:40;101693.88;;;29.59;37.55
7052;BME280;3567;52.444;13.556;2023-07-09T09:52:14;101692.94;;;29.75;37.01
7052;BME280;3567;52.444;13.556;2023-07-09T09:54:41;101699.81;;;29.69;38.18
7052;BME280;3567;52.444;13.556;2023-07-09T09:57:16;101694.84;;;29.63;38.40
7052;BME280;3567;52.444;13.556;2023-07-09T09:59:43;101695.34;;;29.56;38.44
7052;BME280;3567;52.444;13.556;2023-07-09T10:02:20;101696.03;;;29.53;39.44
7052;BME280;3567;52.444;13.556;2023-07-09T10:04:47;101689.13;;;29.89;38.03
7052;BME280;3567;52.444;13.556;2023-07-09T10:07:27;101692.19;;;30.08;38.08
7052;BME280;3567;52.444;13.556;2023-07-09T10:09:55;101692.69;;;30.10;37.79
7052;BME280;3567;52.444;13.556;2023-07-09T10:18:27;101692.91;;;30.05;37.54
7052;BME280;3567;52.444;13.556;2023-07-09T10:21:08;101683.66;;;30.01;36.42
7052;BME280;3567;52.444;13.556;2023-07-09T10:23:56;101675.72;;;29.99;35.67
7052;BME280;3567;52.444;13.556;2023-07-09T10:26:51;101677.19;;;29.97;35.90
7052;BME280;3567;52.444;13.556;2023-07-09T10:34:52;101678.78;;;30.40;35.56
7052;BME280;3567;52.444;13.556;2023-07-09T10:40:14;101676.09;;;30.64;34.13
7052;BME280;3567;52.444;13.556;2023-07-09T10:42:54;101663.19;;;30.68;33.79
7052;BME280;3567;52.444;13.556;2023-07-09T10:45:38;101667.63;;;30.82;33.24
7052;BME280;3567;52.444;13.556;2023-07-09T10:50:53;101662.34;;;31.13;32.48
7052;BME280;3567;52.444;13.556;2023-07-09T10:53:43;101652.22;;;31.29;31.94
7052;BME280;3567;52.444;13.556;2023-07-09T10:56:16;101663.75;;;31.44;34.13
7052;BME280;3567;52.444;13.556;2023-07-09T10:58:57;101659.47;;;31.99;33.84
7052;BME280;3567;52.444;13.556;2023-07-09T11:01:43;101651.69;;;32.32;33.26
7052;BME280;3567;52.444;13.556;2023-07-09T11:04:26;101655.16;;;32.73;31.70
7052;BME280;3567;52.444;13.556;2023-07-09T11:06:56;101648.69;;;33.32;31.70
7052;BME280;3567;52.444;13.556;2023-07-09T11:09:27;101647.69;;;33.76;31.73
7052;BME280;3567;52.444;13.556;2023-07-09T11:11:58;101638.41;;;34.26;29.51
7052;BME280;3567;52.444;13.556;2023-07-09T11:14:32;101634.63;;;34.57;29.53
7052;BME280;3567;52.444;13.556;2023-07-09T11:17:00;101641.91;;;34.65;30.21
7052;BME280;3567;52.444;13.556;2023-07-09T11:19:26;101633.34;;;34.78;29.20
7052;BME280;3567;52.444;13.556;2023-07-09T11:22:13;101636.50;;;34.99;29.22
7052;BME280;3567;52.444;13.556;2023-07-09T11:24:51;101638.34;;;35.14;28.33
7052;BME280;3567;52.444;13.556;2023-07-09T11:27:26;101625.31;;;35.49;28.58
7052;BME280;3567;52.444;13.556;2023-07-09T11:30:01;101622.63;;;35.56;27.25
7052;BME280;3567;52.444;13.556;2023-07-09T11:32:27;101616.59;;;35.24;26.68
7052;BME280;3567;52.444;13.556;2023-07-09T11:34:53;101608.09;;;35.13;26.37
7052;BME280;3567;52.444;13.556;2023-07-09T11:37:25;101611.19;;;35.08;27.49
7052;BME280;3567;52.444;13.556;2023-07-09T11:39:51;101616.34;;;35.06;29.76
7052;BME280;3567;52.444;13.556;2023-07-09T11:42:56;101603.22;;;35.36;27.05
7052;BME280;3567;52.444;13.556;2023-07-09T11:45:31;101600.41;;;35.63;25.92
7052;BME280;3567;52.444;13.556;2023-07-09T11:48:15;101597.16;;;35.57;27.27
7052;BME280;3567;52.444;13.556;2023-07-09T11:50:49;101603.13;;;35.29;27.65
7052;BME280;3567;52.444;13.556;2023-07-09T11:53:35;101597.28;;;35.68;27.31
7052;BME280;3567;52.444;13.556;2023-07-09T11:56:03;101587.44;;;36.11;25.64
7052;BME280;3567;52.444;13.556;2023-07-09T11:58:29;101581.44;;;36.46;25.43
7052;BME280;3567;52.444;13.556;2023-07-09T12:00:57;101583.63;;;36.71;26.27
7052;BME280;3567;52.444;13.556;2023-07-09T12:05:55;101591.59;;;36.28;25.75
7052;BME280;3567;52.444;13.556;2023-07-09T12:08:36;101580.72;;;36.16;24.78
7052;BME280;3567;52.444;13.556;2023-07-09T12:11:03;101576.81;;;36.24;24.97
7052;BME280;3567;52.444;13.556;2023-07-09T12:13:28;101573.72;;;36.36;25.25
7052;BME280;3567;52.444;13.556;2023-07-09T12:15:53;101573.50;;;36.52;25.40
7052;BME280;3567;52.444;13.556;2023-07-09T12:18:19;101561.72;;;36.77;25.31
7052;BME280;3567;52.444;13.556;2023-07-09T12:20:49;101566.00;;;37.22;25.02
7052;BME280;3567;52.444;13.556;2023-07-09T12:23:30;101569.53;;;37.12;25.58
7052;BME280;3567;52.444;13.556;2023-07-09T12:25:59;101555.38;;;37.49;23.98
7052;BME280;3567;52.444;13.556;2023-07-09T12:28:26;101552.72;;;37.95;23.58
7052;BME280;3567;52.444;13.556;2023-07-09T12:30:54;101555.84;;;37.72;24.54
7052;BME280;3567;52.444;13.556;2023-07-09T12:33:25;101555.84;;;37.72;25.30
7052;BME280;3567;52.444;13.556;2023-07-09T12:35:57;101560.72;;;37.93;24.99
7052;BME280;3567;52.444;13.556;2023-07-09T12:38:25;101553.00;;;37.55;23.97
7052;BME280;3567;52.444;13.556;2023-07-09T12:40:52;101549.94;;;37.01;24.98
7052;BME280;3567;52.444;13.556;2023-07-09T12:43:23;101551.50;;;36.95;25.12
7052;BME280;3567;52.444;13.556;2023-07-09T12:45:50;101548.06;;;36.64;24.29
7052;BME280;3567;52.444;13.556;2023-07-09T12:48:16;101544.09;;;36.21;23.73
7052;BME280;3567;52.444;13.556;2023-07-09T12:50:48;101548.38;;;36.11;24.69
7052;BME280;3567;52.444;13.556;2023-07-09T12:53:17;101539.31;;;36.18;24.95
7052;BME280;3567;52.444;13.556;2023-07-09T12:55:46;101528.44;;;36.54;24.21
7052;BME280;3567;52.444;13.556;2023-07-09T12:58:30;101535.94;;;36.94;24.62
7052;BME280;3567;52.444;13.556;2023-07-09T13:00:57;101523.34;;;37.32;23.57
7052;BME280;3567;52.444;13.556;2023-07-09T13:03:28;101521.06;;;37.56;23.24
7052;BME280;3567;52.444;13.556;2023-07-09T13:08:21;101516.75;;;38.08;22.40
7052;BME280;3567;52.444;13.556;2023-07-09T13:10:47;101511.97;;;38.09;21.28
7052;BME280;3567;52.444;13.556;2023-07-09T13:13:19;101510.38;;;38.08;22.91
7052;BME280;3567;52.444;13.556;2023-07-09T13:15:48;101524.75;;;38.03;24.38
7052;BME280;3567;52.444;13.556;2023-07-09T13:18:15;101529.53;;;37.91;25.32
7052;BME280;3567;52.444;13.556;2023-07-09T13:20:42;101519.94;;;37.92;24.27
7052;BME280;3567;52.444;13.556;2023-07-09T13:23:18;101528.34;;;37.92;25.78
7052;BME280;3567;52.444;13.556;2023-07-09T13:25:45;101535.53;;;37.83;24.57
7052;BME280;3567;52.444;13.556;2023-07-09T13:28:29;101528.59;;;37.41;23.99
7052;BME280;3567;52.444;13.556;2023-07-09T13:31:00;101521.63;;;37.03;23.71
7052;BME280;3567;52.444;13.556;2023-07-09T13:33:26;101517.84;;;36.81;22.95
7052;BME280;3567;52.444;13.556;2023-07-09T13:35:52;101516.66;;;36.78;22.77
7052;BME280;3567;52.444;13.556;2023-07-09T13:38:20;101512.13;;;36.56;23.14